PWSweather.com
Personal Weather Stations
Station Observations
719732
Ponferrada, PonferradaES 24411

PonferradaPonferradaES 24411

Lat: 42.5728, Lon: -6.6425

Elevation: 1676

Station Type: PCE-FWS 20 con garita Ambient Weather SRS100LX

www.meteo.spyfly.es

High Low Average
Temperature 69.6°F20.9°C 37.4°F3.0°C 54.0°F12.2°C
Dew Point 49.1°F9.5°C 32.0°F0.0°C 41.5°F5.3°C
Winds 6.9 mph 11.1 kmh Calm Calm 2.0 mph S3.2 kmh S
Wind Gusts 11.4 mph18.3 kmh -- 4.0 mph6.4 kmh
Humidity 98% 25% 67%
Pressure 30.47 in1031.8 mb 30.32 in1026.8 mb -
Precipitation 0.00 in0.0 mm - -
Hour Temp Dew Point Humidity Winds Wind Gusts Pressure Precip Precip Rate Daily Precip Total
12:00 AM 54.1°F12.3°C 49.1°F9.5°C 83% 4.5 mph W7.2 kmh W 9.2 mph14.8 kmh 30.42 in1030.1 mb 0.00 in0.0 mm 0.00 in0.0 mm 0.00 in0.0 mm
12:05 AM 54.1°F12.3°C 48.8°F9.3°C 82% 6.0 mph W9.7 kmh W 11.4 mph18.3 kmh 30.42 in1030.1 mb 0.00 in0.0 mm 0.00 in0.0 mm 0.00 in0.0 mm
12:10 AM 54.1°F12.3°C 48.8°F9.3°C 82% 6.0 mph W9.7 kmh W 11.4 mph18.3 kmh 30.42 in1030.1 mb 0.00 in0.0 mm 0.00 in0.0 mm 0.00 in0.0 mm
12:15 AM 54.0°F12.2°C 48.6°F9.2°C 82% 4.5 mph W7.2 kmh W 9.8 mph15.8 kmh 30.42 in1030.1 mb 0.00 in0.0 mm 0.00 in0.0 mm 0.00 in0.0 mm
12:20 AM 54.0°F12.2°C 48.6°F9.2°C 82% 4.5 mph WNW7.2 kmh WNW 9.8 mph15.8 kmh 30.42 in1030.1 mb 0.00 in0.0 mm 0.00 in0.0 mm 0.00 in0.0 mm
12:25 AM 53.8°F12.1°C 48.4°F9.1°C 82% 4.5 mph WNW7.2 kmh WNW 9.2 mph14.8 kmh 30.42 in1030.1 mb 0.00 in0.0 mm 0.00 in0.0 mm 0.00 in0.0 mm
12:30 AM 53.6°F12.0°C 48.2°F9.0°C 82% 5.4 mph W8.7 kmh W 9.8 mph15.8 kmh 30.42 in1030.1 mb 0.00 in0.0 mm 0.00 in0.0 mm 0.00 in0.0 mm
12:35 AM 53.6°F12.0°C 48.2°F9.0°C 82% 1.6 mph W2.6 kmh W 9.8 mph15.8 kmh 30.42 in1030.1 mb 0.00 in0.0 mm 0.00 in0.0 mm 0.00 in0.0 mm
12:40 AM 53.4°F11.9°C 48.4°F9.1°C 83% 4.5 mph W7.2 kmh W 9.2 mph14.8 kmh 30.42 in1030.1 mb 0.00 in0.0 mm 0.00 in0.0 mm 0.00 in0.0 mm
12:45 AM 53.2°F11.8°C 48.2°F9.0°C 83% 4.5 mph WSW7.2 kmh WSW 6.9 mph11.1 kmh 30.42 in1030.1 mb 0.00 in0.0 mm 0.00 in0.0 mm 0.00 in0.0 mm
12:50 AM 53.2°F11.8°C 47.9°F8.8°C 82% 3.8 mph WSW6.1 kmh WSW 8.3 mph13.4 kmh 30.41 in1029.8 mb 0.00 in0.0 mm 0.00 in0.0 mm 0.00 in0.0 mm
12:55 AM 52.9°F11.6°C 47.5°F8.6°C 82% 2.2 mph WSW3.5 kmh WSW 8.3 mph13.4 kmh 30.41 in1029.8 mb 0.00 in0.0 mm 0.00 in0.0 mm 0.00 in0.0 mm
01:00 AM 52.7°F11.5°C 47.4°F8.6°C 82% 3.1 mph W5.0 kmh W 8.3 mph13.4 kmh 30.42 in1030.1 mb 0.00 in0.0 mm 0.00 in0.0 mm 0.00 in0.0 mm
01:05 AM 52.5°F11.4°C 47.2°F8.4°C 82% 2.2 mph WNW3.5 kmh WNW 8.3 mph13.4 kmh 30.41 in1029.8 mb 0.00 in0.0 mm 0.00 in0.0 mm 0.00 in0.0 mm
01:10 AM 52.3°F11.3°C 47.0°F8.3°C 82% 3.1 mph WNW5.0 kmh WNW 6.0 mph9.7 kmh 30.41 in1029.8 mb 0.00 in0.0 mm 0.00 in0.0 mm 0.00 in0.0 mm
01:15 AM 52.0°F11.1°C 46.7°F8.2°C 82% 3.8 mph WNW6.1 kmh WNW 6.9 mph11.1 kmh 30.41 in1029.8 mb 0.00 in0.0 mm 0.00 in0.0 mm 0.00 in0.0 mm
01:20 AM 51.8°F11.0°C 46.5°F8.1°C 82% 3.1 mph NW5.0 kmh NW 6.9 mph11.1 kmh 30.41 in1029.8 mb 0.00 in0.0 mm 0.00 in0.0 mm 0.00 in0.0 mm
01:25 AM 51.4°F10.8°C 46.5°F8.1°C 83% 4.5 mph WNW7.2 kmh WNW 6.9 mph11.1 kmh 30.41 in1029.8 mb 0.00 in0.0 mm 0.00 in0.0 mm 0.00 in0.0 mm
01:30 AM 51.1°F10.6°C 46.4°F8.0°C 84% 1.6 mph WNW2.6 kmh WNW 6.9 mph11.1 kmh 30.42 in1030.1 mb 0.00 in0.0 mm 0.00 in0.0 mm 0.00 in0.0 mm
01:35 AM 50.9°F10.5°C 46.2°F7.9°C 84% 2.2 mph WNW3.5 kmh WNW 5.4 mph8.7 kmh 30.43 in1030.5 mb 0.00 in0.0 mm 0.00 in0.0 mm 0.00 in0.0 mm
01:40 AM 50.9°F10.5°C 46.2°F7.9°C 84% 1.6 mph WNW2.6 kmh WNW 4.5 mph7.2 kmh 30.42 in1030.1 mb 0.00 in0.0 mm 0.00 in0.0 mm 0.00 in0.0 mm
01:45 AM 50.9°F10.5°C 46.6°F8.1°C 85% 3.1 mph WNW5.0 kmh WNW 4.5 mph7.2 kmh 30.42 in1030.1 mb 0.00 in0.0 mm 0.00 in0.0 mm 0.00 in0.0 mm
01:50 AM 50.7°F10.4°C 46.4°F8.0°C 85% 1.6 mph W2.6 kmh W 3.8 mph6.1 kmh 30.42 in1030.1 mb 0.00 in0.0 mm 0.00 in0.0 mm 0.00 in0.0 mm
01:55 AM 50.7°F10.4°C 46.4°F8.0°C 85% 1.6 mph W2.6 kmh W 3.8 mph6.1 kmh 30.43 in1030.5 mb 0.00 in0.0 mm 0.00 in0.0 mm 0.00 in0.0 mm
02:00 AM 50.7°F10.4°C 46.4°F8.0°C 85% 1.6 mph WNW2.6 kmh WNW 3.8 mph6.1 kmh 30.42 in1030.1 mb 0.00 in0.0 mm 0.00 in0.0 mm 0.00 in0.0 mm
02:05 AM 50.7°F10.4°C 46.4°F8.0°C 85% 1.6 mph NW2.6 kmh NW 3.1 mph5.0 kmh 30.43 in1030.5 mb 0.00 in0.0 mm 0.00 in0.0 mm 0.00 in0.0 mm
02:10 AM 50.5°F10.3°C 46.2°F7.9°C 85% 1.6 mph NNW2.6 kmh NNW 3.1 mph5.0 kmh 30.43 in1030.5 mb 0.00 in0.0 mm 0.00 in0.0 mm 0.00 in0.0 mm
02:15 AM 50.5°F10.3°C 46.5°F8.1°C 86% 0.7 mph N1.1 kmh N 3.1 mph5.0 kmh 30.43 in1030.5 mb 0.00 in0.0 mm 0.00 in0.0 mm 0.00 in0.0 mm
02:20 AM 50.5°F10.3°C 46.5°F8.1°C 86% Calm Calm 3.1 mph5.0 kmh 30.43 in1030.5 mb 0.00 in0.0 mm 0.00 in0.0 mm 0.00 in0.0 mm
02:25 AM 50.5°F10.3°C 46.5°F8.1°C 86% Calm Calm 1.6 mph2.6 kmh 30.43 in1030.5 mb 0.00 in0.0 mm 0.00 in0.0 mm 0.00 in0.0 mm
02:30 AM 50.5°F10.3°C 46.5°F8.1°C 86% 0.7 mph W1.1 kmh W 2.2 mph3.5 kmh 30.43 in1030.5 mb 0.00 in0.0 mm 0.00 in0.0 mm 0.00 in0.0 mm
02:35 AM 50.5°F10.3°C 46.5°F8.1°C 86% Calm Calm 2.2 mph3.5 kmh 30.43 in1030.5 mb 0.00 in0.0 mm 0.00 in0.0 mm 0.00 in0.0 mm
02:40 AM 50.4°F10.2°C 46.3°F7.9°C 86% Calm Calm 1.6 mph2.6 kmh 30.43 in1030.5 mb 0.00 in0.0 mm 0.00 in0.0 mm 0.00 in0.0 mm
02:45 AM 50.2°F10.1°C 46.2°F7.9°C 86% 1.6 mph WSW2.6 kmh WSW 2.2 mph3.5 kmh 30.43 in1030.5 mb 0.00 in0.0 mm 0.00 in0.0 mm 0.00 in0.0 mm
02:50 AM 50.2°F10.1°C 45.9°F7.7°C 85% 0.7 mph W1.1 kmh W 3.8 mph6.1 kmh 30.43 in1030.5 mb 0.00 in0.0 mm 0.00 in0.0 mm 0.00 in0.0 mm
02:55 AM 50.2°F10.1°C 45.9°F7.7°C 85% 1.6 mph SSW2.6 kmh SSW 3.8 mph6.1 kmh 30.43 in1030.5 mb 0.00 in0.0 mm 0.00 in0.0 mm 0.00 in0.0 mm
03:00 AM 50.2°F10.1°C 45.9°F7.7°C 85% Calm Calm 3.1 mph5.0 kmh 30.43 in1030.5 mb 0.00 in0.0 mm 0.00 in0.0 mm 0.00 in0.0 mm
03:05 AM 50.4°F10.2°C 45.7°F7.6°C 84% 0.7 mph SW1.1 kmh SW 3.1 mph5.0 kmh 30.43 in1030.5 mb 0.00 in0.0 mm 0.00 in0.0 mm 0.00 in0.0 mm
03:10 AM 50.4°F10.2°C 45.7°F7.6°C 84% 0.7 mph WSW1.1 kmh WSW 3.1 mph5.0 kmh 30.43 in1030.5 mb 0.00 in0.0 mm 0.00 in0.0 mm 0.00 in0.0 mm
03:15 AM 50.2°F10.1°C 45.9°F7.7°C 85% Calm Calm 2.2 mph3.5 kmh 30.43 in1030.5 mb 0.00 in0.0 mm 0.00 in0.0 mm 0.00 in0.0 mm
03:20 AM 50.0°F10.0°C 45.7°F7.6°C 85% 0.7 mph W1.1 kmh W 1.6 mph2.6 kmh 30.43 in1030.5 mb 0.00 in0.0 mm 0.00 in0.0 mm 0.00 in0.0 mm
03:25 AM 49.8°F9.9°C 45.5°F7.5°C 85% 0.7 mph WSW1.1 kmh WSW 1.6 mph2.6 kmh 30.43 in1030.5 mb 0.00 in0.0 mm 0.00 in0.0 mm 0.00 in0.0 mm
03:30 AM 49.6°F9.8°C 45.3°F7.4°C 85% 0.7 mph WSW1.1 kmh WSW 3.1 mph5.0 kmh 30.42 in1030.1 mb 0.00 in0.0 mm 0.00 in0.0 mm 0.00 in0.0 mm
03:35 AM 49.5°F9.7°C 45.1°F7.3°C 85% 0.7 mph W1.1 kmh W 3.1 mph5.0 kmh 30.42 in1030.1 mb 0.00 in0.0 mm 0.00 in0.0 mm 0.00 in0.0 mm
03:40 AM 49.3°F9.6°C 44.7°F7.1°C 84% 0.7 mph WSW1.1 kmh WSW 2.2 mph3.5 kmh 30.42 in1030.1 mb 0.00 in0.0 mm 0.00 in0.0 mm 0.00 in0.0 mm
03:50 AM 48.9°F9.4°C 44.3°F6.8°C 84% Calm Calm 1.6 mph2.6 kmh 30.42 in1030.1 mb 0.00 in0.0 mm 0.00 in0.0 mm 0.00 in0.0 mm
03:55 AM 48.6°F9.2°C 44.3°F6.8°C 85% 0.7 mph WNW1.1 kmh WNW 1.6 mph2.6 kmh 30.43 in1030.5 mb 0.00 in0.0 mm 0.00 in0.0 mm 0.00 in0.0 mm
04:00 AM 48.2°F9.0°C 43.9°F6.6°C 85% 0.7 mph NNW1.1 kmh NNW 1.6 mph2.6 kmh 30.42 in1030.1 mb 0.00 in0.0 mm 0.00 in0.0 mm 0.00 in0.0 mm
04:05 AM 47.8°F8.8°C 44.2°F6.8°C 87% 2.2 mph NW3.5 kmh NW 3.1 mph5.0 kmh 30.42 in1030.1 mb 0.00 in0.0 mm 0.00 in0.0 mm 0.00 in0.0 mm
04:10 AM 47.5°F8.6°C 44.1°F6.7°C 88% 0.7 mph WNW1.1 kmh WNW 3.1 mph5.0 kmh 30.43 in1030.5 mb 0.00 in0.0 mm 0.00 in0.0 mm 0.00 in0.0 mm
04:15 AM 47.5°F8.6°C 44.4°F6.9°C 89% 0.7 mph WNW1.1 kmh WNW 3.8 mph6.1 kmh 30.42 in1030.1 mb 0.00 in0.0 mm 0.00 in0.0 mm 0.00 in0.0 mm
04:20 AM 47.3°F8.5°C 44.2°F6.8°C 89% 1.6 mph WNW2.6 kmh WNW 3.8 mph6.1 kmh 30.42 in1030.1 mb 0.00 in0.0 mm 0.00 in0.0 mm 0.00 in0.0 mm
04:25 AM 47.3°F8.5°C 44.2°F6.8°C 89% 0.7 mph N1.1 kmh N 3.8 mph6.1 kmh 30.43 in1030.5 mb 0.00 in0.0 mm 0.00 in0.0 mm 0.00 in0.0 mm
04:30 AM 47.1°F8.4°C 44.0°F6.7°C 89% Calm Calm 2.2 mph3.5 kmh 30.42 in1030.1 mb 0.00 in0.0 mm 0.00 in0.0 mm 0.00 in0.0 mm
04:35 AM 46.9°F8.3°C 44.2°F6.8°C 90% 1.6 mph SW2.6 kmh SW 3.8 mph6.1 kmh 30.41 in1029.8 mb 0.00 in0.0 mm 0.00 in0.0 mm 0.00 in0.0 mm
04:40 AM 46.9°F8.3°C 43.9°F6.6°C 89% 0.7 mph SW1.1 kmh SW 3.8 mph6.1 kmh 30.41 in1029.8 mb 0.00 in0.0 mm 0.00 in0.0 mm 0.00 in0.0 mm
04:45 AM 46.8°F8.2°C 43.7°F6.5°C 89% 0.7 mph WSW1.1 kmh WSW 3.8 mph6.1 kmh 30.42 in1030.1 mb 0.00 in0.0 mm 0.00 in0.0 mm 0.00 in0.0 mm
04:50 AM 46.6°F8.1°C 43.2°F6.2°C 88% Calm Calm 1.6 mph2.6 kmh 30.42 in1030.1 mb 0.00 in0.0 mm 0.00 in0.0 mm 0.00 in0.0 mm
04:55 AM 46.2°F7.9°C 43.2°F6.2°C 89% 1.6 mph WSW2.6 kmh WSW 2.2 mph3.5 kmh 30.42 in1030.1 mb 0.00 in0.0 mm 0.00 in0.0 mm 0.00 in0.0 mm
05:00 AM 46.0°F7.8°C 43.0°F6.1°C 89% Calm Calm 2.2 mph3.5 kmh 30.42 in1030.1 mb 0.00 in0.0 mm 0.00 in0.0 mm 0.00 in0.0 mm
05:05 AM 46.0°F7.8°C 43.0°F6.1°C 89% Calm Calm 2.2 mph3.5 kmh 30.42 in1030.1 mb 0.00 in0.0 mm 0.00 in0.0 mm 0.00 in0.0 mm
05:10 AM 45.9°F7.7°C 42.8°F6.0°C 89% 1.6 mph WSW2.6 kmh WSW 2.2 mph3.5 kmh 30.42 in1030.1 mb 0.00 in0.0 mm 0.00 in0.0 mm 0.00 in0.0 mm
05:15 AM 45.7°F7.6°C 42.6°F5.9°C 89% 0.7 mph WSW1.1 kmh WSW 3.1 mph5.0 kmh 30.43 in1030.5 mb 0.00 in0.0 mm 0.00 in0.0 mm 0.00 in0.0 mm
05:20 AM 45.5°F7.5°C 42.5°F5.8°C 89% Calm Calm 3.1 mph5.0 kmh 30.43 in1030.5 mb 0.00 in0.0 mm 0.00 in0.0 mm 0.00 in0.0 mm
05:25 AM 45.3°F7.4°C 42.3°F5.7°C 89% 1.6 mph SW2.6 kmh SW 2.2 mph3.5 kmh 30.43 in1030.5 mb 0.00 in0.0 mm 0.00 in0.0 mm 0.00 in0.0 mm
05:30 AM 45.1°F7.3°C 41.8°F5.4°C 88% Calm Calm 3.1 mph5.0 kmh 30.43 in1030.5 mb 0.00 in0.0 mm 0.00 in0.0 mm 0.00 in0.0 mm
05:35 AM 45.0°F7.2°C 41.6°F5.3°C 88% Calm Calm 3.1 mph5.0 kmh 30.43 in1030.5 mb 0.00 in0.0 mm 0.00 in0.0 mm 0.00 in0.0 mm
05:40 AM 44.8°F7.1°C 41.4°F5.2°C 88% 0.7 mph WSW1.1 kmh WSW 3.1 mph5.0 kmh 30.43 in1030.5 mb 0.00 in0.0 mm 0.00 in0.0 mm 0.00 in0.0 mm
05:45 AM 44.4°F6.9°C 41.1°F5.1°C 88% 0.7 mph SW1.1 kmh SW 2.2 mph3.5 kmh 30.43 in1030.5 mb 0.00 in0.0 mm 0.00 in0.0 mm 0.00 in0.0 mm
05:50 AM 44.4°F6.9°C 41.1°F5.1°C 88% 0.7 mph SW1.1 kmh SW 3.8 mph6.1 kmh 30.43 in1030.5 mb 0.00 in0.0 mm 0.00 in0.0 mm 0.00 in0.0 mm
05:55 AM 44.2°F6.8°C 40.9°F4.9°C 88% 0.7 mph WSW1.1 kmh WSW 3.8 mph6.1 kmh 30.44 in1030.8 mb 0.00 in0.0 mm 0.00 in0.0 mm 0.00 in0.0 mm
06:00 AM 44.1°F6.7°C 40.7°F4.8°C 88% Calm Calm 3.1 mph5.0 kmh 30.43 in1030.5 mb 0.00 in0.0 mm 0.00 in0.0 mm 0.00 in0.0 mm
06:05 AM 43.9°F6.6°C 40.3°F4.6°C 87% Calm Calm 3.1 mph5.0 kmh 30.43 in1030.5 mb 0.00 in0.0 mm 0.00 in0.0 mm 0.00 in0.0 mm
06:10 AM 43.2°F6.2°C 39.6°F4.2°C 87% 1.6 mph N2.6 kmh N 2.2 mph3.5 kmh 30.44 in1030.8 mb 0.00 in0.0 mm 0.00 in0.0 mm 0.00 in0.0 mm
06:15 AM 42.4°F5.8°C 39.1°F3.9°C 88% 1.6 mph N2.6 kmh N 3.1 mph5.0 kmh 30.44 in1030.8 mb 0.00 in0.0 mm 0.00 in0.0 mm 0.00 in0.0 mm
06:20 AM 41.9°F5.5°C 38.9°F3.8°C 89% 1.6 mph N2.6 kmh N 3.1 mph5.0 kmh 30.44 in1030.8 mb 0.00 in0.0 mm 0.00 in0.0 mm 0.00 in0.0 mm
06:25 AM 41.2°F5.1°C 38.2°F3.4°C 89% 1.6 mph NNE2.6 kmh NNE 3.1 mph5.0 kmh 30.45 in1031.2 mb 0.00 in0.0 mm 0.00 in0.0 mm 0.00 in0.0 mm
06:30 AM 40.8°F4.9°C 38.4°F3.6°C 91% 1.6 mph NE2.6 kmh NE 3.1 mph5.0 kmh 30.44 in1030.8 mb 0.00 in0.0 mm 0.00 in0.0 mm 0.00 in0.0 mm
06:35 AM 40.6°F4.8°C 38.5°F3.6°C 92% 1.6 mph E2.6 kmh E 3.8 mph6.1 kmh 30.44 in1030.8 mb 0.00 in0.0 mm 0.00 in0.0 mm 0.00 in0.0 mm
06:40 AM 40.5°F4.7°C 38.6°F3.7°C 93% 1.6 mph E2.6 kmh E 3.8 mph6.1 kmh 30.45 in1031.2 mb 0.00 in0.0 mm 0.00 in0.0 mm 0.00 in0.0 mm
06:45 AM 40.3°F4.6°C 38.4°F3.6°C 93% 2.2 mph ENE3.5 kmh ENE 3.8 mph6.1 kmh 30.45 in1031.2 mb 0.00 in0.0 mm 0.00 in0.0 mm 0.00 in0.0 mm
06:50 AM 39.9°F4.4°C 38.3°F3.5°C 94% Calm Calm 3.1 mph5.0 kmh 30.45 in1031.2 mb 0.00 in0.0 mm 0.00 in0.0 mm 0.00 in0.0 mm
06:55 AM 39.7°F4.3°C 38.2°F3.4°C 94% Calm Calm 3.1 mph5.0 kmh 30.45 in1031.2 mb 0.00 in0.0 mm 0.00 in0.0 mm 0.00 in0.0 mm
07:00 AM 39.4°F4.1°C 37.8°F3.2°C 94% 1.6 mph NNE2.6 kmh NNE 2.2 mph3.5 kmh 30.45 in1031.2 mb 0.00 in0.0 mm 0.00 in0.0 mm 0.00 in0.0 mm
07:05 AM 39.0°F3.9°C 37.7°F3.2°C 95% 1.6 mph NNE2.6 kmh NNE 3.1 mph5.0 kmh 30.45 in1031.2 mb 0.00 in0.0 mm 0.00 in0.0 mm 0.00 in0.0 mm
07:10 AM 38.7°F3.7°C 37.4°F3.0°C 95% 0.7 mph NNE1.1 kmh NNE 3.1 mph5.0 kmh 30.45 in1031.2 mb 0.00 in0.0 mm 0.00 in0.0 mm 0.00 in0.0 mm
07:15 AM 38.7°F3.7°C 37.6°F3.1°C 96% 2.2 mph NE3.5 kmh NE 3.8 mph6.1 kmh 30.45 in1031.2 mb 0.00 in0.0 mm 0.00 in0.0 mm 0.00 in0.0 mm
07:20 AM 38.5°F3.6°C 37.4°F3.0°C 96% 0.7 mph NE1.1 kmh NE 3.8 mph6.1 kmh 30.45 in1031.2 mb 0.00 in0.0 mm 0.00 in0.0 mm 0.00 in0.0 mm
07:25 AM 38.7°F3.7°C 37.6°F3.1°C 96% 1.6 mph NE2.6 kmh NE 3.8 mph6.1 kmh 30.45 in1031.2 mb 0.00 in0.0 mm 0.00 in0.0 mm 0.00 in0.0 mm
07:30 AM 38.8°F3.8°C 38.1°F3.4°C 97% 0.7 mph NNE1.1 kmh NNE 4.5 mph7.2 kmh 30.45 in1031.2 mb 0.00 in0.0 mm 0.00 in0.0 mm 0.00 in0.0 mm
07:35 AM 38.8°F3.8°C 38.1°F3.4°C 97% 1.6 mph NE2.6 kmh NE 4.5 mph7.2 kmh 30.45 in1031.2 mb 0.00 in0.0 mm 0.00 in0.0 mm 0.00 in0.0 mm
07:40 AM 38.5°F3.6°C 37.7°F3.2°C 97% 2.2 mph E3.5 kmh E 3.8 mph6.1 kmh 30.45 in1031.2 mb 0.00 in0.0 mm 0.00 in0.0 mm 0.00 in0.0 mm
07:45 AM 38.1°F3.4°C 37.3°F2.9°C 97% 1.6 mph E2.6 kmh E 3.8 mph6.1 kmh 30.45 in1031.2 mb 0.00 in0.0 mm 0.00 in0.0 mm 0.00 in0.0 mm
07:50 AM 37.8°F3.2°C 37.0°F2.8°C 97% 1.6 mph E2.6 kmh E 3.1 mph5.0 kmh 30.45 in1031.2 mb 0.00 in0.0 mm 0.00 in0.0 mm 0.00 in0.0 mm
07:55 AM 37.6°F3.1°C 36.8°F2.7°C 97% 1.6 mph E2.6 kmh E 3.1 mph5.0 kmh 30.45 in1031.2 mb 0.00 in0.0 mm 0.00 in0.0 mm 0.00 in0.0 mm
08:00 AM 37.6°F3.1°C 36.8°F2.7°C 97% 0.7 mph E1.1 kmh E 3.1 mph5.0 kmh 30.45 in1031.2 mb 0.00 in0.0 mm 0.00 in0.0 mm 0.00 in0.0 mm
08:05 AM 37.4°F3.0°C 36.6°F2.6°C 97% 1.6 mph E2.6 kmh E 2.2 mph3.5 kmh 30.45 in1031.2 mb 0.00 in0.0 mm 0.00 in0.0 mm 0.00 in0.0 mm
08:10 AM 37.6°F3.1°C 36.8°F2.7°C 97% 1.6 mph E2.6 kmh E 2.2 mph3.5 kmh 30.45 in1031.2 mb 0.00 in0.0 mm 0.00 in0.0 mm 0.00 in0.0 mm
08:15 AM 37.6°F3.1°C 36.8°F2.7°C 97% 1.6 mph E2.6 kmh E 3.1 mph5.0 kmh 30.45 in1031.2 mb 0.00 in0.0 mm 0.00 in0.0 mm 0.00 in0.0 mm
08:20 AM 37.6°F3.1°C 36.8°F2.7°C 97% 0.7 mph ENE1.1 kmh ENE 3.8 mph6.1 kmh 30.45 in1031.2 mb 0.00 in0.0 mm 0.00 in0.0 mm 0.00 in0.0 mm
08:25 AM 37.6°F3.1°C 37.1°F2.8°C 98% 1.6 mph NE2.6 kmh NE 3.8 mph6.1 kmh 30.45 in1031.2 mb 0.00 in0.0 mm 0.00 in0.0 mm 0.00 in0.0 mm
08:30 AM 38.3°F3.5°C 37.8°F3.2°C 98% 0.7 mph NNE1.1 kmh NNE 3.8 mph6.1 kmh 30.45 in1031.2 mb 0.00 in0.0 mm 0.00 in0.0 mm 0.00 in0.0 mm
08:35 AM 39.2°F4.0°C 38.7°F3.7°C 98% 1.6 mph NE2.6 kmh NE 3.8 mph6.1 kmh 30.45 in1031.2 mb 0.00 in0.0 mm 0.00 in0.0 mm 0.00 in0.0 mm
08:40 AM 40.3°F4.6°C 39.8°F4.3°C 98% 2.2 mph NE3.5 kmh NE 3.8 mph6.1 kmh 30.45 in1031.2 mb 0.00 in0.0 mm 0.00 in0.0 mm 0.00 in0.0 mm
08:45 AM 41.0°F5.0°C 39.9°F4.4°C 96% 3.1 mph NNE5.0 kmh NNE 5.4 mph8.7 kmh 30.46 in1031.5 mb 0.00 in0.0 mm 0.00 in0.0 mm 0.00 in0.0 mm
08:50 AM 41.5°F5.3°C 40.5°F4.7°C 96% 1.6 mph NNE2.6 kmh NNE 5.4 mph8.7 kmh 30.45 in1031.2 mb 0.00 in0.0 mm 0.00 in0.0 mm 0.00 in0.0 mm
08:55 AM 42.1°F5.6°C 40.8°F4.9°C 95% 2.2 mph NE3.5 kmh NE 4.5 mph7.2 kmh 30.46 in1031.5 mb 0.00 in0.0 mm 0.00 in0.0 mm 0.00 in0.0 mm
09:00 AM 42.6°F5.9°C 41.0°F5.0°C 94% 0.7 mph NE1.1 kmh NE 3.1 mph5.0 kmh 30.46 in1031.5 mb 0.00 in0.0 mm 0.00 in0.0 mm 0.00 in0.0 mm
09:05 AM 43.2°F6.2°C 41.3°F5.2°C 93% 1.6 mph E2.6 kmh E 3.1 mph5.0 kmh 30.46 in1031.5 mb 0.00 in0.0 mm 0.00 in0.0 mm 0.00 in0.0 mm
09:10 AM 44.1°F6.7°C 41.9°F5.5°C 92% 1.6 mph SE2.6 kmh SE 3.1 mph5.0 kmh 30.46 in1031.5 mb 0.00 in0.0 mm 0.00 in0.0 mm 0.00 in0.0 mm
09:15 AM 44.8°F7.1°C 42.0°F5.6°C 90% 0.7 mph ESE1.1 kmh ESE 3.1 mph5.0 kmh 30.46 in1031.5 mb 0.00 in0.0 mm 0.00 in0.0 mm 0.00 in0.0 mm
09:20 AM 45.5°F7.5°C 42.5°F5.8°C 89% 2.2 mph E3.5 kmh E 3.8 mph6.1 kmh 30.46 in1031.5 mb 0.00 in0.0 mm 0.00 in0.0 mm 0.00 in0.0 mm
09:25 AM 46.4°F8.0°C 42.7°F5.9°C 87% 1.6 mph ESE2.6 kmh ESE 3.8 mph6.1 kmh 30.46 in1031.5 mb 0.00 in0.0 mm 0.00 in0.0 mm 0.00 in0.0 mm
09:30 AM 47.5°F8.6°C 43.5°F6.4°C 86% 0.7 mph SE1.1 kmh SE 3.8 mph6.1 kmh 30.46 in1031.5 mb 0.00 in0.0 mm 0.00 in0.0 mm 0.00 in0.0 mm
09:35 AM 48.4°F9.1°C 43.8°F6.6°C 84% 1.6 mph SE2.6 kmh SE 3.1 mph5.0 kmh 30.46 in1031.5 mb 0.00 in0.0 mm 0.00 in0.0 mm 0.00 in0.0 mm
09:40 AM 48.6°F9.2°C 43.0°F6.1°C 81% 0.7 mph E1.1 kmh E 3.1 mph5.0 kmh 30.46 in1031.5 mb 0.00 in0.0 mm 0.00 in0.0 mm 0.00 in0.0 mm
09:45 AM 48.9°F9.4°C 43.0°F6.1°C 80% Calm Calm 3.1 mph5.0 kmh 30.46 in1031.5 mb 0.00 in0.0 mm 0.00 in0.0 mm 0.00 in0.0 mm
09:50 AM 49.8°F9.9°C 43.6°F6.4°C 79% Calm Calm 1.6 mph2.6 kmh 30.46 in1031.5 mb 0.00 in0.0 mm 0.00 in0.0 mm 0.00 in0.0 mm
09:55 AM 50.0°F10.0°C 43.4°F6.3°C 78% Calm Calm 1.6 mph2.6 kmh 30.47 in1031.8 mb 0.00 in0.0 mm 0.00 in0.0 mm 0.00 in0.0 mm
10:00 AM 50.7°F10.4°C 43.4°F6.3°C 76% 0.7 mph WNW1.1 kmh WNW 2.2 mph3.5 kmh 30.46 in1031.5 mb 0.00 in0.0 mm 0.00 in0.0 mm 0.00 in0.0 mm
10:05 AM 50.7°F10.4°C 43.1°F6.2°C 75% 1.6 mph WSW2.6 kmh WSW 2.2 mph3.5 kmh 30.47 in1031.8 mb 0.00 in0.0 mm 0.00 in0.0 mm 0.00 in0.0 mm
10:10 AM 51.1°F10.6°C 43.1°F6.2°C 74% 1.6 mph S2.6 kmh S 3.1 mph5.0 kmh 30.46 in1031.5 mb 0.00 in0.0 mm 0.00 in0.0 mm 0.00 in0.0 mm
10:15 AM 51.4°F10.8°C 43.1°F6.2°C 73% 1.6 mph S2.6 kmh S 3.8 mph6.1 kmh 30.46 in1031.5 mb 0.00 in0.0 mm 0.00 in0.0 mm 0.00 in0.0 mm
10:20 AM 52.0°F11.1°C 43.2°F6.2°C 72% 0.7 mph SSW1.1 kmh SSW 3.8 mph6.1 kmh 30.46 in1031.5 mb 0.00 in0.0 mm 0.00 in0.0 mm 0.00 in0.0 mm
10:25 AM 52.2°F11.2°C 43.4°F6.3°C 72% 0.7 mph S1.1 kmh S 3.1 mph5.0 kmh 30.46 in1031.5 mb 0.00 in0.0 mm 0.00 in0.0 mm 0.00 in0.0 mm
10:30 AM 52.3°F11.3°C 43.2°F6.2°C 71% 1.6 mph SE2.6 kmh SE 3.8 mph6.1 kmh 30.46 in1031.5 mb 0.00 in0.0 mm 0.00 in0.0 mm 0.00 in0.0 mm
10:35 AM 52.5°F11.4°C 43.4°F6.3°C 71% 0.7 mph SE1.1 kmh SE 3.8 mph6.1 kmh 30.46 in1031.5 mb 0.00 in0.0 mm 0.00 in0.0 mm 0.00 in0.0 mm
10:40 AM 52.9°F11.6°C 43.4°F6.3°C 70% 1.6 mph E2.6 kmh E 3.1 mph5.0 kmh 30.46 in1031.5 mb 0.00 in0.0 mm 0.00 in0.0 mm 0.00 in0.0 mm
10:45 AM 53.2°F11.8°C 43.7°F6.5°C 70% 2.2 mph WSW3.5 kmh WSW 3.1 mph5.0 kmh 30.46 in1031.5 mb 0.00 in0.0 mm 0.00 in0.0 mm 0.00 in0.0 mm
10:50 AM 53.6°F12.0°C 43.7°F6.5°C 69% 0.7 mph SW1.1 kmh SW 3.8 mph6.1 kmh 30.46 in1031.5 mb 0.00 in0.0 mm 0.00 in0.0 mm 0.00 in0.0 mm
10:55 AM 53.8°F12.1°C 43.5°F6.4°C 68% 2.2 mph SW3.5 kmh SW 3.8 mph6.1 kmh 30.46 in1031.5 mb 0.00 in0.0 mm 0.00 in0.0 mm 0.00 in0.0 mm
11:00 AM 54.0°F12.2°C 43.3°F6.3°C 67% 1.6 mph SW2.6 kmh SW 3.8 mph6.1 kmh 30.46 in1031.5 mb 0.00 in0.0 mm 0.00 in0.0 mm 0.00 in0.0 mm
11:05 AM 54.3°F12.4°C 43.6°F6.4°C 67% 2.2 mph SW3.5 kmh SW 3.8 mph6.1 kmh 30.46 in1031.5 mb 0.00 in0.0 mm 0.00 in0.0 mm 0.00 in0.0 mm
11:10 AM 54.7°F12.6°C 43.9°F6.6°C 67% 0.7 mph S1.1 kmh S 3.1 mph5.0 kmh 30.46 in1031.5 mb 0.00 in0.0 mm 0.00 in0.0 mm 0.00 in0.0 mm
11:15 AM 55.0°F12.8°C 44.3°F6.8°C 67% 3.8 mph WSW6.1 kmh WSW 6.0 mph9.7 kmh 30.46 in1031.5 mb 0.00 in0.0 mm 0.00 in0.0 mm 0.00 in0.0 mm
11:20 AM 54.7°F12.6°C 43.6°F6.4°C 66% 1.6 mph WSW2.6 kmh WSW 6.0 mph9.7 kmh 30.46 in1031.5 mb 0.00 in0.0 mm 0.00 in0.0 mm 0.00 in0.0 mm
11:25 AM 54.7°F12.6°C 43.9°F6.6°C 67% 1.6 mph SW2.6 kmh SW 6.0 mph9.7 kmh 30.46 in1031.5 mb 0.00 in0.0 mm 0.00 in0.0 mm 0.00 in0.0 mm
11:30 AM 55.2°F12.9°C 44.1°F6.7°C 66% 2.2 mph SW3.5 kmh SW 5.4 mph8.7 kmh 30.45 in1031.2 mb 0.00 in0.0 mm 0.00 in0.0 mm 0.00 in0.0 mm
11:35 AM 55.6°F13.1°C 44.4°F6.9°C 66% 2.2 mph SW3.5 kmh SW 5.4 mph8.7 kmh 30.45 in1031.2 mb 0.00 in0.0 mm 0.00 in0.0 mm 0.00 in0.0 mm
11:40 AM 55.4°F13.0°C 43.8°F6.6°C 65% 3.1 mph WSW5.0 kmh WSW 5.4 mph8.7 kmh 30.45 in1031.2 mb 0.00 in0.0 mm 0.00 in0.0 mm 0.00 in0.0 mm
11:45 AM 55.4°F13.0°C 44.2°F6.8°C 66% 3.1 mph W5.0 kmh W 5.4 mph8.7 kmh 30.45 in1031.2 mb 0.00 in0.0 mm 0.00 in0.0 mm 0.00 in0.0 mm
11:50 AM 55.4°F13.0°C 43.8°F6.6°C 65% 2.2 mph W3.5 kmh W 5.4 mph8.7 kmh 30.45 in1031.2 mb 0.00 in0.0 mm 0.00 in0.0 mm 0.00 in0.0 mm
11:55 AM 55.9°F13.3°C 44.8°F7.1°C 66% 3.1 mph WSW5.0 kmh WSW 5.4 mph8.7 kmh 30.45 in1031.2 mb 0.00 in0.0 mm 0.00 in0.0 mm 0.00 in0.0 mm
12:00 PM 56.3°F13.5°C 45.1°F7.3°C 66% 0.7 mph WSW1.1 kmh WSW 6.0 mph9.7 kmh 30.45 in1031.2 mb 0.00 in0.0 mm 0.00 in0.0 mm 0.00 in0.0 mm
12:05 PM 56.8°F13.8°C 45.2°F7.3°C 65% 1.6 mph WNW2.6 kmh WNW 6.0 mph9.7 kmh 30.44 in1030.8 mb 0.00 in0.0 mm 0.00 in0.0 mm 0.00 in0.0 mm
12:10 PM 57.2°F14.0°C 44.7°F7.1°C 63% 3.1 mph WSW5.0 kmh WSW 6.0 mph9.7 kmh 30.44 in1030.8 mb 0.00 in0.0 mm 0.00 in0.0 mm 0.00 in0.0 mm
12:15 PM 57.4°F14.1°C 44.9°F7.2°C 63% 2.2 mph WNW3.5 kmh WNW 6.0 mph9.7 kmh 30.45 in1031.2 mb 0.00 in0.0 mm 0.00 in0.0 mm 0.00 in0.0 mm
12:20 PM 57.6°F14.2°C 44.7°F7.1°C 62% 2.2 mph W3.5 kmh W 5.4 mph8.7 kmh 30.44 in1030.8 mb 0.00 in0.0 mm 0.00 in0.0 mm 0.00 in0.0 mm
12:25 PM 58.3°F14.6°C 45.3°F7.4°C 62% 0.7 mph S1.1 kmh S 5.4 mph8.7 kmh 30.45 in1031.2 mb 0.00 in0.0 mm 0.00 in0.0 mm 0.00 in0.0 mm
12:30 PM 59.0°F15.0°C 45.1°F7.3°C 60% 0.7 mph SSW1.1 kmh SSW 4.5 mph7.2 kmh 30.44 in1030.8 mb 0.00 in0.0 mm 0.00 in0.0 mm 0.00 in0.0 mm
12:35 PM 59.4°F15.2°C 45.0°F7.2°C 59% Calm Calm 5.4 mph8.7 kmh 30.44 in1030.8 mb 0.00 in0.0 mm 0.00 in0.0 mm 0.00 in0.0 mm
12:40 PM 59.9°F15.5°C 45.1°F7.3°C 58% 3.1 mph WNW5.0 kmh WNW 5.4 mph8.7 kmh 30.44 in1030.8 mb 0.00 in0.0 mm 0.00 in0.0 mm 0.00 in0.0 mm
12:45 PM 59.7°F15.4°C 44.5°F6.9°C 57% 2.2 mph WSW3.5 kmh WSW 5.4 mph8.7 kmh 30.44 in1030.8 mb 0.00 in0.0 mm 0.00 in0.0 mm 0.00 in0.0 mm
12:50 PM 60.1°F15.6°C 45.3°F7.4°C 58% 1.6 mph SW2.6 kmh SW 4.5 mph7.2 kmh 30.44 in1030.8 mb 0.00 in0.0 mm 0.00 in0.0 mm 0.00 in0.0 mm
12:55 PM 60.8°F16.0°C 45.0°F7.2°C 56% 3.8 mph WSW6.1 kmh WSW 5.4 mph8.7 kmh 30.43 in1030.5 mb 0.00 in0.0 mm 0.00 in0.0 mm 0.00 in0.0 mm
01:00 PM 61.0°F16.1°C 45.2°F7.3°C 56% 3.8 mph W6.1 kmh W 7.6 mph12.2 kmh 30.43 in1030.5 mb 0.00 in0.0 mm 0.00 in0.0 mm 0.00 in0.0 mm
01:05 PM 61.0°F16.1°C 44.2°F6.8°C 54% 3.1 mph WSW5.0 kmh WSW 7.6 mph12.2 kmh 30.43 in1030.5 mb 0.00 in0.0 mm 0.00 in0.0 mm 0.00 in0.0 mm
01:10 PM 61.2°F16.2°C 44.4°F6.9°C 54% 3.1 mph WSW5.0 kmh WSW 6.0 mph9.7 kmh 30.43 in1030.5 mb 0.00 in0.0 mm 0.00 in0.0 mm 0.00 in0.0 mm
01:15 PM 61.3°F16.3°C 44.1°F6.7°C 53% 3.1 mph WNW5.0 kmh WNW 6.0 mph9.7 kmh 30.43 in1030.5 mb 0.00 in0.0 mm 0.00 in0.0 mm 0.00 in0.0 mm
01:20 PM 61.2°F16.2°C 43.9°F6.6°C 53% 1.6 mph WNW2.6 kmh WNW 6.0 mph9.7 kmh 30.42 in1030.1 mb 0.00 in0.0 mm 0.00 in0.0 mm 0.00 in0.0 mm
01:25 PM 61.5°F16.4°C 43.7°F6.5°C 52% 0.7 mph W1.1 kmh W 4.5 mph7.2 kmh 30.42 in1030.1 mb 0.00 in0.0 mm 0.00 in0.0 mm 0.00 in0.0 mm
01:30 PM 61.9°F16.6°C 44.6°F7.0°C 53% 1.6 mph W2.6 kmh W 3.8 mph6.1 kmh 30.42 in1030.1 mb 0.00 in0.0 mm 0.00 in0.0 mm 0.00 in0.0 mm
01:35 PM 62.1°F16.7°C 44.7°F7.1°C 53% 4.5 mph W7.2 kmh W 6.9 mph11.1 kmh 30.41 in1029.8 mb 0.00 in0.0 mm 0.00 in0.0 mm 0.00 in0.0 mm
01:40 PM 61.9°F16.6°C 44.1°F6.7°C 52% 0.7 mph W1.1 kmh W 6.9 mph11.1 kmh 30.41 in1029.8 mb 0.00 in0.0 mm 0.00 in0.0 mm 0.00 in0.0 mm
01:45 PM 62.2°F16.8°C 44.9°F7.2°C 53% 1.6 mph W2.6 kmh W 6.9 mph11.1 kmh 30.41 in1029.8 mb 0.00 in0.0 mm 0.00 in0.0 mm 0.00 in0.0 mm
01:50 PM 63.0°F17.2°C 44.0°F6.7°C 50% 3.1 mph N5.0 kmh N 5.4 mph8.7 kmh 30.41 in1029.8 mb 0.00 in0.0 mm 0.00 in0.0 mm 0.00 in0.0 mm
01:55 PM 63.3°F17.4°C 43.3°F6.3°C 48% 3.8 mph SSW6.1 kmh SSW 5.4 mph8.7 kmh 30.40 in1029.5 mb 0.00 in0.0 mm 0.00 in0.0 mm 0.00 in0.0 mm
02:00 PM 63.5°F17.5°C 42.9°F6.1°C 47% 3.1 mph WSW5.0 kmh WSW 6.0 mph9.7 kmh 30.40 in1029.5 mb 0.00 in0.0 mm 0.00 in0.0 mm 0.00 in0.0 mm
02:05 PM 63.5°F17.5°C 42.4°F5.8°C 46% 4.5 mph W7.2 kmh W 6.0 mph9.7 kmh 30.40 in1029.5 mb 0.00 in0.0 mm 0.00 in0.0 mm 0.00 in0.0 mm
02:10 PM 63.5°F17.5°C 42.4°F5.8°C 46% 1.6 mph W2.6 kmh W 6.9 mph11.1 kmh 30.40 in1029.5 mb 0.00 in0.0 mm 0.00 in0.0 mm 0.00 in0.0 mm
02:15 PM 63.7°F17.6°C 42.5°F5.8°C 46% 1.6 mph W2.6 kmh W 6.9 mph11.1 kmh 30.40 in1029.5 mb 0.00 in0.0 mm 0.00 in0.0 mm 0.00 in0.0 mm
02:20 PM 64.2°F17.9°C 42.5°F5.8°C 45% 2.2 mph W3.5 kmh W 8.3 mph13.4 kmh 30.39 in1029.1 mb 0.00 in0.0 mm 0.00 in0.0 mm 0.00 in0.0 mm
02:25 PM 64.4°F18.0°C 42.6°F5.9°C 45% 6.0 mph W9.7 kmh W 9.2 mph14.8 kmh 30.39 in1029.1 mb 0.00 in0.0 mm 0.00 in0.0 mm 0.00 in0.0 mm
02:30 PM 64.6°F18.1°C 41.6°F5.3°C 43% 6.9 mph WNW11.1 kmh WNW 9.2 mph14.8 kmh 30.38 in1028.8 mb 0.00 in0.0 mm 0.00 in0.0 mm 0.00 in0.0 mm
02:35 PM 64.4°F18.0°C 40.2°F4.6°C 41% 3.8 mph NW6.1 kmh NW 9.2 mph14.8 kmh 30.39 in1029.1 mb 0.00 in0.0 mm 0.00 in0.0 mm 0.00 in0.0 mm
02:40 PM 64.6°F18.1°C 39.7°F4.3°C 40% 3.8 mph NW6.1 kmh NW 9.2 mph14.8 kmh 30.39 in1029.1 mb 0.00 in0.0 mm 0.00 in0.0 mm 0.00 in0.0 mm
02:45 PM 64.9°F18.3°C 39.4°F4.1°C 39% 4.5 mph NW7.2 kmh NW 6.9 mph11.1 kmh 30.38 in1028.8 mb 0.00 in0.0 mm 0.00 in0.0 mm 0.00 in0.0 mm
02:50 PM 65.3°F18.5°C 39.7°F4.3°C 39% 6.9 mph WNW11.1 kmh WNW 9.2 mph14.8 kmh 30.38 in1028.8 mb 0.00 in0.0 mm 0.00 in0.0 mm 0.00 in0.0 mm
02:55 PM 65.1°F18.4°C 38.9°F3.8°C 38% 3.8 mph WNW6.1 kmh WNW 9.2 mph14.8 kmh 30.38 in1028.8 mb 0.00 in0.0 mm 0.00 in0.0 mm 0.00 in0.0 mm
03:00 PM 65.5°F18.6°C 39.2°F4.0°C 38% 3.8 mph WNW6.1 kmh WNW 9.2 mph14.8 kmh 30.38 in1028.8 mb 0.00 in0.0 mm 0.00 in0.0 mm 0.00 in0.0 mm
03:05 PM 65.8°F18.8°C 39.5°F4.2°C 38% 5.4 mph WNW8.7 kmh WNW 9.2 mph14.8 kmh 30.38 in1028.8 mb 0.00 in0.0 mm 0.00 in0.0 mm 0.00 in0.0 mm
03:10 PM 65.8°F18.8°C 39.5°F4.2°C 38% 4.5 mph WNW7.2 kmh WNW 9.2 mph14.8 kmh 30.38 in1028.8 mb 0.00 in0.0 mm 0.00 in0.0 mm 0.00 in0.0 mm
03:15 PM 66.0°F18.9°C 40.4°F4.7°C 39% 4.5 mph NW7.2 kmh NW 7.6 mph12.2 kmh 30.37 in1028.4 mb 0.00 in0.0 mm 0.00 in0.0 mm 0.00 in0.0 mm
03:20 PM 66.4°F19.1°C 39.3°F4.1°C 37% 5.4 mph WNW8.7 kmh WNW 7.6 mph12.2 kmh 30.37 in1028.4 mb 0.00 in0.0 mm 0.00 in0.0 mm 0.00 in0.0 mm
03:25 PM 66.4°F19.1°C 40.0°F4.4°C 38% 2.2 mph W3.5 kmh W 7.6 mph12.2 kmh 30.37 in1028.4 mb 0.00 in0.0 mm 0.00 in0.0 mm 0.00 in0.0 mm
03:30 PM 66.9°F19.4°C 39.8°F4.3°C 37% 4.5 mph WSW7.2 kmh WSW 7.6 mph12.2 kmh 30.37 in1028.4 mb 0.00 in0.0 mm 0.00 in0.0 mm 0.00 in0.0 mm
03:35 PM 67.1°F19.5°C 39.3°F4.1°C 36% 3.8 mph WSW6.1 kmh WSW 6.0 mph9.7 kmh 30.37 in1028.4 mb 0.00 in0.0 mm 0.00 in0.0 mm 0.00 in0.0 mm
03:40 PM 67.5°F19.7°C 38.9°F3.8°C 35% 1.6 mph WSW2.6 kmh WSW 6.0 mph9.7 kmh 30.36 in1028.1 mb 0.00 in0.0 mm 0.00 in0.0 mm 0.00 in0.0 mm
03:45 PM 67.8°F19.9°C 39.9°F4.4°C 36% 1.6 mph SW2.6 kmh SW 5.4 mph8.7 kmh 30.36 in1028.1 mb 0.00 in0.0 mm 0.00 in0.0 mm 0.00 in0.0 mm
03:50 PM 68.0°F20.0°C 39.4°F4.1°C 35% 2.2 mph S3.5 kmh S 5.4 mph8.7 kmh 30.36 in1028.1 mb 0.00 in0.0 mm 0.00 in0.0 mm 0.00 in0.0 mm
03:55 PM 68.4°F20.2°C 39.7°F4.3°C 35% 1.6 mph S2.6 kmh S 5.4 mph8.7 kmh 30.36 in1028.1 mb 0.00 in0.0 mm 0.00 in0.0 mm 0.00 in0.0 mm
04:00 PM 68.4°F20.2°C 38.9°F3.8°C 34% 3.8 mph SSW6.1 kmh SSW 6.9 mph11.1 kmh 30.35 in1027.8 mb 0.00 in0.0 mm 0.00 in0.0 mm 0.00 in0.0 mm
04:05 PM 68.2°F20.1°C 39.5°F4.2°C 35% 2.2 mph SW3.5 kmh SW 6.9 mph11.1 kmh 30.36 in1028.1 mb 0.00 in0.0 mm 0.00 in0.0 mm 0.00 in0.0 mm
04:10 PM 68.2°F20.1°C 38.8°F3.8°C 34% 1.6 mph W2.6 kmh W 5.4 mph8.7 kmh 30.36 in1028.1 mb 0.00 in0.0 mm 0.00 in0.0 mm 0.00 in0.0 mm
04:15 PM 68.4°F20.2°C 38.9°F3.8°C 34% 2.2 mph W3.5 kmh W 6.0 mph9.7 kmh 30.35 in1027.8 mb 0.00 in0.0 mm 0.00 in0.0 mm 0.00 in0.0 mm
04:20 PM 68.4°F20.2°C 38.9°F3.8°C 34% 0.7 mph WSW1.1 kmh WSW 6.0 mph9.7 kmh 30.35 in1027.8 mb 0.00 in0.0 mm 0.00 in0.0 mm 0.00 in0.0 mm
04:25 PM 68.5°F20.3°C 39.8°F4.3°C 35% 2.2 mph WSW3.5 kmh WSW 4.5 mph7.2 kmh 30.35 in1027.8 mb 0.00 in0.0 mm 0.00 in0.0 mm 0.00 in0.0 mm
04:30 PM 68.7°F20.4°C 39.2°F4.0°C 34% 0.7 mph WSW1.1 kmh WSW 4.5 mph7.2 kmh 30.35 in1027.8 mb 0.00 in0.0 mm 0.00 in0.0 mm 0.00 in0.0 mm
04:35 PM 69.1°F20.6°C 40.3°F4.6°C 35% 3.1 mph W5.0 kmh W 5.4 mph8.7 kmh 30.35 in1027.8 mb 0.00 in0.0 mm 0.00 in0.0 mm 0.00 in0.0 mm
04:40 PM 69.1°F20.6°C 40.3°F4.6°C 35% 3.1 mph WNW5.0 kmh WNW 5.4 mph8.7 kmh 30.35 in1027.8 mb 0.00 in0.0 mm 0.00 in0.0 mm 0.00 in0.0 mm
04:45 PM 69.1°F20.6°C 41.0°F5.0°C 36% 2.2 mph WSW3.5 kmh WSW 6.0 mph9.7 kmh 30.35 in1027.8 mb 0.00 in0.0 mm 0.00 in0.0 mm 0.00 in0.0 mm
04:50 PM 68.5°F20.3°C 39.1°F3.9°C 34% 1.6 mph S2.6 kmh S 6.0 mph9.7 kmh 30.35 in1027.8 mb 0.00 in0.0 mm 0.00 in0.0 mm 0.00 in0.0 mm
04:55 PM 68.5°F20.3°C 39.8°F4.3°C 35% 3.1 mph SSE5.0 kmh SSE 5.4 mph8.7 kmh 30.35 in1027.8 mb 0.00 in0.0 mm 0.00 in0.0 mm 0.00 in0.0 mm
05:00 PM 68.7°F20.4°C 40.7°F4.8°C 36% 4.5 mph NW7.2 kmh NW 5.4 mph8.7 kmh 30.35 in1027.8 mb 0.00 in0.0 mm 0.00 in0.0 mm 0.00 in0.0 mm
05:05 PM 68.9°F20.5°C 40.1°F4.5°C 35% 2.2 mph NW3.5 kmh NW 6.0 mph9.7 kmh 30.35 in1027.8 mb 0.00 in0.0 mm 0.00 in0.0 mm 0.00 in0.0 mm
05:10 PM 69.1°F20.6°C 39.6°F4.2°C 34% 0.7 mph NW1.1 kmh NW 6.0 mph9.7 kmh 30.34 in1027.4 mb 0.00 in0.0 mm 0.00 in0.0 mm 0.00 in0.0 mm
05:15 PM 69.1°F20.6°C 39.6°F4.2°C 34% 1.6 mph W2.6 kmh W 3.8 mph6.1 kmh 30.35 in1027.8 mb 0.00 in0.0 mm 0.00 in0.0 mm 0.00 in0.0 mm
05:20 PM 69.3°F20.7°C 39.0°F3.9°C 33% Calm Calm 3.8 mph6.1 kmh 30.34 in1027.4 mb 0.00 in0.0 mm 0.00 in0.0 mm 0.00 in0.0 mm
05:25 PM 69.4°F20.8°C 39.1°F3.9°C 33% 1.6 mph WNW2.6 kmh WNW 3.1 mph5.0 kmh 30.34 in1027.4 mb 0.00 in0.0 mm 0.00 in0.0 mm 0.00 in0.0 mm
05:30 PM 69.6°F20.9°C 38.5°F3.6°C 32% 0.7 mph NW1.1 kmh NW 4.5 mph7.2 kmh 30.34 in1027.4 mb 0.00 in0.0 mm 0.00 in0.0 mm 0.00 in0.0 mm
05:35 PM 69.3°F20.7°C 35.7°F2.1°C 29% 1.6 mph W2.6 kmh W 4.5 mph7.2 kmh 30.34 in1027.4 mb 0.00 in0.0 mm 0.00 in0.0 mm 0.00 in0.0 mm
05:40 PM 69.4°F20.8°C 34.9°F1.6°C 28% 1.6 mph SW2.6 kmh SW 3.1 mph5.0 kmh 30.34 in1027.4 mb 0.00 in0.0 mm 0.00 in0.0 mm 0.00 in0.0 mm
05:45 PM 69.6°F20.9°C 34.2°F1.2°C 27% 1.6 mph WSW2.6 kmh WSW 3.1 mph5.0 kmh 30.34 in1027.4 mb 0.00 in0.0 mm 0.00 in0.0 mm 0.00 in0.0 mm
05:50 PM 69.6°F20.9°C 33.2°F0.7°C 26% 0.7 mph SW1.1 kmh SW 3.8 mph6.1 kmh 30.34 in1027.4 mb 0.00 in0.0 mm 0.00 in0.0 mm 0.00 in0.0 mm
05:55 PM 69.3°F20.7°C 32.0°F0.0°C 25% 0.7 mph SSW1.1 kmh SSW 3.8 mph6.1 kmh 30.34 in1027.4 mb 0.00 in0.0 mm 0.00 in0.0 mm 0.00 in0.0 mm
06:00 PM 69.3°F20.7°C 33.9°F1.1°C 27% 0.7 mph SW1.1 kmh SW 2.2 mph3.5 kmh 30.34 in1027.4 mb 0.00 in0.0 mm 0.00 in0.0 mm 0.00 in0.0 mm
06:05 PM 69.6°F20.9°C 35.1°F1.7°C 28% 1.6 mph WSW2.6 kmh WSW 3.1 mph5.0 kmh 30.33 in1027.1 mb 0.00 in0.0 mm 0.00 in0.0 mm 0.00 in0.0 mm
06:10 PM 69.6°F20.9°C 34.2°F1.2°C 27% Calm Calm 3.1 mph5.0 kmh 30.33 in1027.1 mb 0.00 in0.0 mm 0.00 in0.0 mm 0.00 in0.0 mm
06:15 PM 69.6°F20.9°C 35.1°F1.7°C 28% Calm Calm 1.6 mph2.6 kmh 30.33 in1027.1 mb 0.00 in0.0 mm 0.00 in0.0 mm 0.00 in0.0 mm
06:20 PM 69.3°F20.7°C 33.9°F1.1°C 27% 0.7 mph ENE1.1 kmh ENE 4.5 mph7.2 kmh 30.34 in1027.4 mb 0.00 in0.0 mm 0.00 in0.0 mm 0.00 in0.0 mm
06:25 PM 69.3°F20.7°C 32.9°F0.5°C 26% 0.7 mph E1.1 kmh E 4.5 mph7.2 kmh 30.33 in1027.1 mb 0.00 in0.0 mm 0.00 in0.0 mm 0.00 in0.0 mm
06:30 PM 69.1°F20.6°C 33.7°F0.9°C 27% Calm Calm 2.2 mph3.5 kmh 30.33 in1027.1 mb 0.00 in0.0 mm 0.00 in0.0 mm 0.00 in0.0 mm
06:35 PM 69.1°F20.6°C 34.6°F1.4°C 28% Calm Calm 2.2 mph3.5 kmh 30.33 in1027.1 mb 0.00 in0.0 mm 0.00 in0.0 mm 0.00 in0.0 mm
06:40 PM 69.1°F20.6°C 34.6°F1.4°C 28% 1.6 mph NE2.6 kmh NE 3.1 mph5.0 kmh 30.33 in1027.1 mb 0.00 in0.0 mm 0.00 in0.0 mm 0.00 in0.0 mm
06:45 PM 69.1°F20.6°C 35.5°F1.9°C 29% 2.2 mph NE3.5 kmh NE 3.8 mph6.1 kmh 30.33 in1027.1 mb 0.00 in0.0 mm 0.00 in0.0 mm 0.00 in0.0 mm
06:50 PM 68.5°F20.3°C 35.9°F2.2°C 30% 1.6 mph NNE2.6 kmh NNE 3.8 mph6.1 kmh 30.32 in1026.8 mb 0.00 in0.0 mm 0.00 in0.0 mm 0.00 in0.0 mm
06:55 PM 68.0°F20.0°C 34.6°F1.4°C 29% Calm Calm 3.1 mph5.0 kmh 30.33 in1027.1 mb 0.00 in0.0 mm 0.00 in0.0 mm 0.00 in0.0 mm
07:00 PM 67.6°F19.8°C 35.9°F2.2°C 31% Calm Calm 3.1 mph5.0 kmh 30.33 in1027.1 mb 0.00 in0.0 mm 0.00 in0.0 mm 0.00 in0.0 mm
07:05 PM 67.3°F19.6°C 36.4°F2.4°C 32% 0.7 mph N1.1 kmh N 1.6 mph2.6 kmh 30.32 in1026.8 mb 0.00 in0.0 mm 0.00 in0.0 mm 0.00 in0.0 mm
07:10 PM 66.4°F19.1°C 37.2°F2.9°C 34% 0.7 mph N1.1 kmh N 1.6 mph2.6 kmh 30.32 in1026.8 mb 0.00 in0.0 mm 0.00 in0.0 mm 0.00 in0.0 mm
07:15 PM 65.5°F18.6°C 37.1°F2.8°C 35% Calm Calm 1.6 mph2.6 kmh 30.32 in1026.8 mb 0.00 in0.0 mm 0.00 in0.0 mm 0.00 in0.0 mm
07:20 PM 64.6°F18.1°C 37.0°F2.8°C 36% Calm Calm 1.6 mph2.6 kmh 30.33 in1027.1 mb 0.00 in0.0 mm 0.00 in0.0 mm 0.00 in0.0 mm
07:25 PM 63.7°F17.6°C 37.6°F3.1°C 38% 0.7 mph N1.1 kmh N 1.6 mph2.6 kmh 30.33 in1027.1 mb 0.00 in0.0 mm 0.00 in0.0 mm 0.00 in0.0 mm
07:30 PM 62.6°F17.0°C 37.3°F2.9°C 39% Calm Calm 1.6 mph2.6 kmh 30.33 in1027.1 mb 0.00 in0.0 mm 0.00 in0.0 mm 0.00 in0.0 mm
07:35 PM 61.9°F16.6°C 38.6°F3.7°C 42% Calm Calm 1.6 mph2.6 kmh 30.34 in1027.4 mb 0.00 in0.0 mm 0.00 in0.0 mm 0.00 in0.0 mm
07:40 PM 61.2°F16.2°C 38.5°F3.6°C 43% Calm Calm -- 30.33 in1027.1 mb 0.00 in0.0 mm 0.00 in0.0 mm 0.00 in0.0 mm
07:45 PM 60.4°F15.8°C 38.4°F3.6°C 44% Calm Calm -- 30.34 in1027.4 mb 0.00 in0.0 mm 0.00 in0.0 mm 0.00 in0.0 mm
07:50 PM 59.7°F15.4°C 38.4°F3.6°C 45% Calm Calm -- 30.33 in1027.1 mb 0.00 in0.0 mm 0.00 in0.0 mm 0.00 in0.0 mm
07:55 PM 59.0°F15.0°C 38.8°F3.8°C 47% Calm Calm -- 30.34 in1027.4 mb 0.00 in0.0 mm 0.00 in0.0 mm 0.00 in0.0 mm
08:00 PM 58.5°F14.7°C 39.4°F4.1°C 49% 0.7 mph S1.1 kmh S 1.6 mph2.6 kmh 30.34 in1027.4 mb 0.00 in0.0 mm 0.00 in0.0 mm 0.00 in0.0 mm
08:05 PM 57.7°F14.3°C 39.7°F4.3°C 51% 1.6 mph E2.6 kmh E 4.5 mph7.2 kmh 30.34 in1027.4 mb 0.00 in0.0 mm 0.00 in0.0 mm 0.00 in0.0 mm
08:10 PM 57.6°F14.2°C 39.1°F3.9°C 50% 1.6 mph E2.6 kmh E 4.5 mph7.2 kmh 30.34 in1027.4 mb 0.00 in0.0 mm 0.00 in0.0 mm 0.00 in0.0 mm
08:15 PM 57.2°F14.0°C 39.2°F4.0°C 51% 2.2 mph NE3.5 kmh NE 3.8 mph6.1 kmh 30.34 in1027.4 mb 0.00 in0.0 mm 0.00 in0.0 mm 0.00 in0.0 mm
08:20 PM 56.5°F13.6°C 40.5°F4.7°C 55% 2.2 mph NNE3.5 kmh NNE 3.8 mph6.1 kmh 30.35 in1027.8 mb 0.00 in0.0 mm 0.00 in0.0 mm 0.00 in0.0 mm
08:25 PM 55.4°F13.0°C 40.0°F4.4°C 56% 1.6 mph NNE2.6 kmh NNE 3.1 mph5.0 kmh 30.35 in1027.8 mb 0.00 in0.0 mm 0.00 in0.0 mm 0.00 in0.0 mm
08:30 PM 54.9°F12.7°C 39.9°F4.4°C 57% Calm Calm 3.1 mph5.0 kmh 30.35 in1027.8 mb 0.00 in0.0 mm 0.00 in0.0 mm 0.00 in0.0 mm
08:35 PM 54.1°F12.3°C 40.6°F4.8°C 60% 1.6 mph NNE2.6 kmh NNE 2.2 mph3.5 kmh 30.35 in1027.8 mb 0.00 in0.0 mm 0.00 in0.0 mm 0.00 in0.0 mm
08:40 PM 53.8°F12.1°C 40.7°F4.8°C 61% 1.6 mph NE2.6 kmh NE 3.1 mph5.0 kmh 30.35 in1027.8 mb 0.00 in0.0 mm 0.00 in0.0 mm 0.00 in0.0 mm
08:45 PM 53.6°F12.0°C 40.9°F4.9°C 62% 0.7 mph E1.1 kmh E 3.1 mph5.0 kmh 30.35 in1027.8 mb 0.00 in0.0 mm 0.00 in0.0 mm 0.00 in0.0 mm
08:50 PM 53.2°F11.8°C 41.0°F5.0°C 63% 0.7 mph E1.1 kmh E 3.1 mph5.0 kmh 30.35 in1027.8 mb 0.00 in0.0 mm 0.00 in0.0 mm 0.00 in0.0 mm
08:55 PM 53.1°F11.7°C 40.8°F4.9°C 63% 0.7 mph NE1.1 kmh NE 2.2 mph3.5 kmh 30.35 in1027.8 mb 0.00 in0.0 mm 0.00 in0.0 mm 0.00 in0.0 mm
09:00 PM 52.7°F11.5°C 40.9°F4.9°C 64% 1.6 mph NE2.6 kmh NE 3.8 mph6.1 kmh 30.35 in1027.8 mb 0.00 in0.0 mm 0.00 in0.0 mm 0.00 in0.0 mm
09:05 PM 52.5°F11.4°C 40.7°F4.8°C 64% 1.6 mph ENE2.6 kmh ENE 3.8 mph6.1 kmh 30.35 in1027.8 mb 0.00 in0.0 mm 0.00 in0.0 mm 0.00 in0.0 mm
09:10 PM 52.3°F11.3°C 40.9°F4.9°C 65% 1.6 mph E2.6 kmh E 3.8 mph6.1 kmh 30.35 in1027.8 mb 0.00 in0.0 mm 0.00 in0.0 mm 0.00 in0.0 mm
09:15 PM 52.0°F11.1°C 40.6°F4.8°C 65% 2.2 mph E3.5 kmh E 3.1 mph5.0 kmh 30.35 in1027.8 mb 0.00 in0.0 mm 0.00 in0.0 mm 0.00 in0.0 mm
09:20 PM 51.6°F10.9°C 40.6°F4.8°C 66% 1.6 mph NE2.6 kmh NE 3.1 mph5.0 kmh 30.36 in1028.1 mb 0.00 in0.0 mm 0.00 in0.0 mm 0.00 in0.0 mm
09:25 PM 51.1°F10.6°C 40.1°F4.5°C 66% 0.7 mph NE1.1 kmh NE 5.4 mph8.7 kmh 30.35 in1027.8 mb 0.00 in0.0 mm 0.00 in0.0 mm 0.00 in0.0 mm
09:30 PM 50.9°F10.5°C 40.3°F4.6°C 67% 1.6 mph ENE2.6 kmh ENE 5.4 mph8.7 kmh 30.36 in1028.1 mb 0.00 in0.0 mm 0.00 in0.0 mm 0.00 in0.0 mm
09:35 PM 50.7°F10.4°C 40.6°F4.8°C 68% 0.7 mph NE1.1 kmh NE 2.2 mph3.5 kmh 30.36 in1028.1 mb 0.00 in0.0 mm 0.00 in0.0 mm 0.00 in0.0 mm
09:40 PM 50.4°F10.2°C 40.2°F4.6°C 68% 0.7 mph NNE1.1 kmh NNE 2.2 mph3.5 kmh 30.36 in1028.1 mb 0.00 in0.0 mm 0.00 in0.0 mm 0.00 in0.0 mm
09:45 PM 50.0°F10.0°C 40.2°F4.6°C 69% 1.6 mph NE2.6 kmh NE 2.2 mph3.5 kmh 30.36 in1028.1 mb 0.00 in0.0 mm 0.00 in0.0 mm 0.00 in0.0 mm
09:50 PM 49.6°F9.8°C 40.6°F4.8°C 71% 1.6 mph NE2.6 kmh NE 3.1 mph5.0 kmh 30.36 in1028.1 mb 0.00 in0.0 mm 0.00 in0.0 mm 0.00 in0.0 mm
09:55 PM 49.5°F9.7°C 40.5°F4.7°C 71% 1.6 mph NE2.6 kmh NE 3.1 mph5.0 kmh 30.37 in1028.4 mb 0.00 in0.0 mm 0.00 in0.0 mm 0.00 in0.0 mm
10:00 PM 49.3°F9.6°C 40.3°F4.6°C 71% 0.7 mph NNE1.1 kmh NNE 3.1 mph5.0 kmh 30.36 in1028.1 mb 0.00 in0.0 mm 0.00 in0.0 mm 0.00 in0.0 mm
10:05 PM 49.3°F9.6°C 40.6°F4.8°C 72% 0.7 mph N1.1 kmh N 2.2 mph3.5 kmh 30.36 in1028.1 mb 0.00 in0.0 mm 0.00 in0.0 mm 0.00 in0.0 mm
10:10 PM 49.5°F9.7°C 40.8°F4.9°C 72% 0.7 mph NE1.1 kmh NE 2.2 mph3.5 kmh 30.37 in1028.4 mb 0.00 in0.0 mm 0.00 in0.0 mm 0.00 in0.0 mm
10:15 PM 49.3°F9.6°C 40.6°F4.8°C 72% 1.6 mph NE2.6 kmh NE 3.1 mph5.0 kmh 30.37 in1028.4 mb 0.00 in0.0 mm 0.00 in0.0 mm 0.00 in0.0 mm
10:20 PM 49.3°F9.6°C 40.6°F4.8°C 72% 1.6 mph ENE2.6 kmh ENE 3.1 mph5.0 kmh 30.37 in1028.4 mb 0.00 in0.0 mm 0.00 in0.0 mm 0.00 in0.0 mm
10:25 PM 49.1°F9.5°C 40.5°F4.7°C 72% 1.6 mph E2.6 kmh E 3.1 mph5.0 kmh 30.37 in1028.4 mb 0.00 in0.0 mm 0.00 in0.0 mm 0.00 in0.0 mm
10:30 PM 48.9°F9.4°C 40.3°F4.6°C 72% 0.7 mph ENE1.1 kmh ENE 3.1 mph5.0 kmh 30.36 in1028.1 mb 0.00 in0.0 mm 0.00 in0.0 mm 0.00 in0.0 mm
10:35 PM 48.7°F9.3°C 40.1°F4.5°C 72% Calm Calm 3.1 mph5.0 kmh 30.36 in1028.1 mb 0.00 in0.0 mm 0.00 in0.0 mm 0.00 in0.0 mm
10:40 PM 48.6°F9.2°C 40.0°F4.4°C 72% 0.7 mph E1.1 kmh E 2.2 mph3.5 kmh 30.37 in1028.4 mb 0.00 in0.0 mm 0.00 in0.0 mm 0.00 in0.0 mm
10:45 PM 48.6°F9.2°C 40.3°F4.6°C 73% Calm Calm 1.6 mph2.6 kmh 30.37 in1028.4 mb 0.00 in0.0 mm 0.00 in0.0 mm 0.00 in0.0 mm
10:50 PM 48.2°F9.0°C 40.0°F4.4°C 73% Calm Calm 1.6 mph2.6 kmh 30.37 in1028.4 mb 0.00 in0.0 mm 0.00 in0.0 mm 0.00 in0.0 mm
10:55 PM 48.0°F8.9°C 40.5°F4.7°C 75% 0.7 mph N1.1 kmh N 2.2 mph3.5 kmh 30.37 in1028.4 mb 0.00 in0.0 mm 0.00 in0.0 mm 0.00 in0.0 mm
11:00 PM 47.5°F8.6°C 40.0°F4.4°C 75% Calm Calm 2.2 mph3.5 kmh 30.37 in1028.4 mb 0.00 in0.0 mm 0.00 in0.0 mm 0.00 in0.0 mm
11:05 PM 47.1°F8.4°C 40.0°F4.4°C 76% 0.7 mph N1.1 kmh N 1.6 mph2.6 kmh 30.37 in1028.4 mb 0.00 in0.0 mm 0.00 in0.0 mm 0.00 in0.0 mm
11:10 PM 46.9°F8.3°C 39.8°F4.3°C 76% 0.7 mph N1.1 kmh N 1.6 mph2.6 kmh 30.38 in1028.8 mb 0.00 in0.0 mm 0.00 in0.0 mm 0.00 in0.0 mm
11:15 PM 46.6°F8.1°C 39.4°F4.1°C 76% 0.7 mph N1.1 kmh N 1.6 mph2.6 kmh 30.37 in1028.4 mb 0.00 in0.0 mm 0.00 in0.0 mm 0.00 in0.0 mm
11:20 PM 46.4°F8.0°C 39.3°F4.1°C 76% 0.7 mph N1.1 kmh N 1.6 mph2.6 kmh 30.38 in1028.8 mb 0.00 in0.0 mm 0.00 in0.0 mm 0.00 in0.0 mm
11:25 PM 46.2°F7.9°C 39.4°F4.1°C 77% 0.7 mph N1.1 kmh N 2.2 mph3.5 kmh 30.38 in1028.8 mb 0.00 in0.0 mm 0.00 in0.0 mm 0.00 in0.0 mm
11:30 PM 46.0°F7.8°C 39.2°F4.0°C 77% Calm Calm 2.2 mph3.5 kmh 30.37 in1028.4 mb 0.00 in0.0 mm 0.00 in0.0 mm 0.00 in0.0 mm
11:35 PM 46.2°F7.9°C 39.7°F4.3°C 78% Calm Calm 1.6 mph2.6 kmh 30.37 in1028.4 mb 0.00 in0.0 mm 0.00 in0.0 mm 0.00 in0.0 mm
11:40 PM 46.6°F8.1°C 40.1°F4.5°C 78% Calm Calm -- 30.37 in1028.4 mb 0.00 in0.0 mm 0.00 in0.0 mm 0.00 in0.0 mm
11:45 PM 46.6°F8.1°C 40.1°F4.5°C 78% Calm Calm -- 30.37 in1028.4 mb 0.00 in0.0 mm 0.00 in0.0 mm 0.00 in0.0 mm
11:50 PM 46.6°F8.1°C 40.1°F4.5°C 78% Calm Calm -- 30.37 in1028.4 mb 0.00 in0.0 mm 0.00 in0.0 mm 0.00 in0.0 mm
11:55 PM 46.4°F8.0°C 39.9°F4.4°C 78% Calm Calm 1.6 mph2.6 kmh 30.37 in1028.4 mb 0.00 in0.0 mm 0.00 in0.0 mm 0.00 in0.0 mm